Time;durP1;ratioP1;P1;durP2;ratioP2;P2;SDS_P1;SDS_P2;PMS_P1;PMS_P2;Temp;Humidity;BMP_temperature;BMP_pressure;BME280_temperature;BME280_humidity;BME280_pressure;Samples;Min_cycle;Max_cycle;Signal;HPM_P1;HPM_P2
2021/09/20 00:02:54;;;;;;;5.70;4.77;;;;;;;10.22;77.89;99918.69;255733;1104;115076;-66
2021/09/20 00:07:57;;;;;;;8.03;4.23;;;;;;;10.21;77.89;99923.20;255944;1104;115144;-68
2021/09/20 00:13:00;;;;;;;5.15;4.33;;;;;;;10.23;78.24;99921.13;255301;1104;114807;-67
2021/09/20 00:18:03;;;;;;;5.23;4.28;;;;;;;10.26;78.39;99927.86;255354;1104;115189;-67
2021/09/20 00:23:07;;;;;;;7.23;5.95;;;;;;;10.26;78.54;99925.19;253873;1104;115341;-67
2021/09/20 00:28:10;;;;;;;6.88;5.25;;;;;;;10.27;78.19;99922.30;254356;1104;114708;-66
2021/09/20 00:33:13;;;;;;;5.38;4.48;;;;;;;10.26;78.51;99920.67;253737;1104;115222;-67
2021/09/20 00:38:15;;;;;;;6.60;4.87;;;;;;;10.26;78.48;99925.19;254087;1104;115364;-67
2021/09/20 00:43:19;;;;;;;8.58;4.60;;;;;;;10.26;78.57;99935.84;254656;1104;116644;-67
2021/09/20 00:48:21;;;;;;;5.68;5.18;;;;;;;10.25;78.17;99932.38;253472;1104;115570;-66
2021/09/20 00:53:25;;;;;;;11.87;4.73;;;;;;;10.25;78.42;99929.70;255590;1104;115074;-67
2021/09/20 00:58:28;;;;;;;8.17;4.73;;;;;;;10.27;78.54;99932.95;255015;1104;114766;-67
2021/09/20 01:03:33;;;;;;;5.73;4.60;;;;;;;10.24;77.96;99929.93;255508;1104;114790;-67
2021/09/20 01:08:38;;;;;;;6.30;5.10;;;;;;;10.20;78.42;99934.90;257072;1104;115579;-68
2021/09/20 01:13:41;;;;;;;7.55;4.50;;;;;;;10.19;78.33;99930.61;257083;1104;116070;-67
2021/09/20 01:18:44;;;;;;;5.27;4.23;;;;;;;10.21;78.50;99935.71;257031;1104;115350;-68
2021/09/20 01:23:47;;;;;;;5.80;4.90;;;;;;;10.25;78.32;99939.55;257286;1104;116181;-68
2021/09/20 01:28:51;;;;;;;10.20;4.35;;;;;;;10.21;78.35;99931.20;255697;1104;115443;-69
2021/09/20 01:33:55;;;;;;;3.60;3.35;;;;;;;10.19;78.31;99932.43;254266;1104;115951;-68
2021/09/20 01:38:59;;;;;;;6.13;4.40;;;;;;;10.13;77.94;99931.48;253790;1100;115525;-69
2021/09/20 01:44:02;;;;;;;5.63;3.65;;;;;;;10.07;78.09;99927.09;254851;1099;115765;-67
2021/09/20 01:49:06;;;;;;;4.80;4.30;;;;;;;10.02;77.95;99922.44;254245;1104;115862;-67
2021/09/20 01:54:10;;;;;;;7.63;4.63;;;;;;;9.97;78.33;99927.62;253842;1104;115471;-67
2021/09/20 01:59:14;;;;;;;5.15;3.95;;;;;;;9.91;78.03;99922.38;254699;1104;115732;-67
2021/09/20 02:04:16;;;;;;;5.83;4.25;;;;;;;9.88;78.16;99922.83;254497;1100;115438;-67
2021/09/20 02:09:20;;;;;;;4.20;3.70;;;;;;;9.86;78.24;99916.91;254489;1104;115712;-66
2021/09/20 02:14:23;;;;;;;5.13;3.95;;;;;;;9.86;78.50;99916.91;254395;1104;115534;-65
2021/09/20 02:19:27;;;;;;;4.50;4.10;;;;;;;9.83;78.16;99912.03;254687;1104;115084;-67
2021/09/20 02:24:30;;;;;;;3.90;3.47;;;;;;;9.79;78.91;99920.47;254321;1104;115455;-67
2021/09/20 02:29:34;;;;;;;5.70;4.20;;;;;;;9.71;78.39;99918.14;256017;1104;115700;-66
2021/09/20 02:34:38;;;;;;;7.50;4.48;;;;;;;9.68;78.48;99923.91;254379;1104;114236;-67
2021/09/20 02:39:41;;;;;;;6.25;3.75;;;;;;;9.69;78.60;99928.19;255697;1104;114106;-66
2021/09/20 02:44:44;;;;;;;5.43;4.65;;;;;;;9.72;78.38;99918.95;254894;1104;115190;-66
2021/09/20 02:49:46;;;;;;;4.40;3.50;;;;;;;9.71;78.39;99918.14;254940;1104;115215;-66
2021/09/20 02:54:49;;;;;;;3.70;3.05;;;;;;;9.64;77.82;99928.05;253661;1104;114895;-66
2021/09/20 02:59:54;;;;;;;5.93;3.55;;;;;;;9.56;78.13;99927.53;254927;1104;115591;-67
2021/09/20 03:04:57;;;;;;;6.90;4.75;;;;;;;9.47;78.42;99924.38;255328;1104;115981;-67
2021/09/20 03:10:01;;;;;;;5.50;5.00;;;;;;;9.42;78.34;99924.23;256644;1099;115357;-66
2021/09/20 03:15:06;;;;;;;6.98;5.38;;;;;;;9.32;78.56;99929.25;255240;1104;114474;-66
2021/09/20 03:20:10;;;;;;;4.65;3.93;;;;;;;9.28;78.41;99931.53;254452;1104;115153;-67
2021/09/20 03:25:14;;;;;;;5.65;4.15;;;;;;;9.25;77.78;99923.18;256905;1104;114994;-67
2021/09/20 03:30:17;;;;;;;9.13;5.20;;;;;;;9.23;78.45;99926.06;257240;1104;115328;-67
2021/09/20 03:35:20;;;;;;;6.08;4.10;;;;;;;9.22;77.72;99919.11;257187;1104;115747;-67
2021/09/20 03:40:23;;;;;;;11.68;5.40;;;;;;;9.21;78.22;99919.33;253891;1100;116184;-66
2021/09/20 03:45:26;;;;;;;5.70;4.10;;;;;;;9.20;77.83;99931.00;255411;1104;115962;-66
2021/09/20 03:50:29;;;;;;;10.50;5.10;;;;;;;9.18;77.74;99933.06;254893;1100;115972;-66
2021/09/20 03:55:32;;;;;;;5.13;4.43;;;;;;;9.11;78.31;99936.64;254175;1104;115916;-66
2021/09/20 04:00:34;;;;;;;7.75;4.25;;;;;;;9.03;77.82;99942.23;253993;1099;115650;-67
2021/09/20 04:05:38;;;;;;;6.25;3.25;;;;;;;8.97;77.48;99953.73;255510;1104;115361;-66
2021/09/20 04:10:43;;;;;;;3.83;2.73;;;;;;;8.95;77.92;99947.01;254357;1104;115537;-66
2021/09/20 04:15:46;;;;;;;6.05;3.40;;;;;;;8.89;77.13;99951.34;254102;1104;117034;-66
2021/09/20 04:20:55;;;;;;;3.58;2.48;;;;;;;8.82;76.83;99968.41;255979;1104;115464;-68
2021/09/20 04:25:58;;;;;;;3.28;2.50;;;;;;;8.72;77.15;99972.36;253755;1104;115944;-66
2021/09/20 04:31:01;;;;;;;2.75;2.38;;;;;;;8.69;77.08;99971.98;253665;1104;116217;-66
2021/09/20 04:36:04;;;;;;;3.95;2.80;;;;;;;8.66;77.16;99972.41;254103;1098;116714;-66
2021/09/20 04:41:07;;;;;;;2.53;2.30;;;;;;;8.62;77.35;99973.86;257053;1104;114757;-66
2021/09/20 04:46:10;;;;;;;2.63;2.43;;;;;;;8.66;77.34;99985.69;253359;1104;114743;-66
2021/09/20 04:51:13;;;;;;;4.07;2.13;;;;;;;8.68;76.56;99991.61;254139;1104;115590;-66
2021/09/20 04:56:20;;;;;;;2.58;2.38;;;;;;;8.71;77.12;99988.52;255396;1104;115792;-66
2021/09/20 05:01:22;;;;;;;2.50;2.40;;;;;;;8.71;76.92;99985.86;253723;1104;115626;-65
2021/09/20 05:06:25;;;;;;;2.40;2.20;;;;;;;8.64;77.01;99983.25;254315;1099;115687;-66
2021/09/20 05:11:28;;;;;;;4.93;2.03;;;;;;;8.64;76.58;99995.72;253702;1104;116918;-66
2021/09/20 05:16:31;;;;;;;2.75;2.55;;;;;;;8.70;76.71;99995.68;256604;1104;115077;-66
2021/09/20 05:21:35;;;;;;;6.85;2.90;;;;;;;8.74;76.05;99991.56;257337;1104;114818;-66
2021/09/20 05:26:39;;;;;;;2.95;2.13;;;;;;;8.77;76.65;99996.45;254969;1104;115663;-66
2021/09/20 05:31:42;;;;;;;5.50;2.88;;;;;;;8.82;76.20;99998.47;255315;1104;115844;-66
2021/09/20 05:36:46;;;;;;;4.65;2.13;;;;;;;8.84;76.45;100007.04;254065;1104;115414;-66
2021/09/20 05:41:49;;;;;;;5.15;2.93;;;;;;;8.90;76.58;100003.48;257313;1104;116134;-66
2021/09/20 05:46:53;;;;;;;2.75;2.53;;;;;;;8.99;75.75;99991.56;257260;1104;115394;-66
2021/09/20 05:51:56;;;;;;;1.93;1.83;;;;;;;9.06;75.73;99994.98;255072;1104;116058;-66
2021/09/20 05:57:00;;;;;;;2.60;2.13;;;;;;;9.12;75.30;100003.94;255423;1104;116251;-68
2021/09/20 06:02:04;;;;;;;4.28;2.18;;;;;;;9.19;75.21;100003.84;256009;1104;116135;-66
2021/09/20 06:07:07;;;;;;;2.43;2.23;;;;;;;9.29;75.96;99999.66;255912;1104;115199;-66
2021/09/20 06:12:10;;;;;;;2.43;2.23;;;;;;;9.35;74.91;99988.15;254533;1104;115978;-66
2021/09/20 06:17:14;;;;;;;4.60;1.98;;;;;;;9.42;75.38;99988.09;255535;1100;116153;-66
2021/09/20 06:22:18;;;;;;;2.33;2.00;;;;;;;9.52;75.10;99999.02;255301;1104;116129;-66
2021/09/20 06:27:22;;;;;;;2.20;1.83;;;;;;;9.61;75.29;100007.52;254509;1104;115777;-65
2021/09/20 06:32:25;;;;;;;2.38;1.88;;;;;;;9.67;74.63;100010.12;254608;1099;115594;-65
2021/09/20 06:37:29;;;;;;;2.93;1.70;;;;;;;9.73;74.90;100009.23;254284;1104;115858;-67
2021/09/20 06:42:32;;;;;;;1.75;1.65;;;;;;;9.74;74.83;100008.20;253802;1100;115819;-67
2021/09/20 06:47:36;;;;;;;2.35;1.80;;;;;;;9.75;74.59;100017.81;253948;1104;115768;-68
2021/09/20 06:52:39;;;;;;;1.58;1.48;;;;;;;9.79;74.67;100020.82;253718;1100;116560;-68
2021/09/20 06:57:43;;;;;;;2.45;1.85;;;;;;;9.85;74.15;100021.78;253941;1104;115935;-68
2021/09/20 07:02:47;;;;;;;2.25;1.90;;;;;;;9.91;74.42;100027.04;255140;1104;115854;-68
2021/09/20 07:07:52;;;;;;;2.18;1.98;;;;;;;10.01;73.90;100026.52;254361;1104;115911;-68
2021/09/20 07:12:59;;;;;;;2.30;2.18;;;;;;;10.12;73.66;100031.89;254715;1104;115887;-67
2021/09/20 07:18:05;;;;;;;3.25;2.08;;;;;;;10.27;74.17;100044.05;255928;1104;116682;-67
2021/09/20 07:23:10;;;;;;;7.73;3.60;;;;;;;10.41;74.29;100048.14;255574;1104;116456;-67
2021/09/20 07:28:14;;;;;;;2.43;2.23;;;;;;;10.48;73.52;100042.73;253891;1100;116957;-66
2021/09/20 07:33:17;;;;;;;3.35;3.13;;;;;;;10.53;73.68;100037.53;256479;1104;116608;-67
2021/09/20 07:38:20;;;;;;;11.95;2.68;;;;;;;10.63;73.22;100035.14;257123;1104;116074;-67
2021/09/20 07:43:24;;;;;;;3.10;2.33;;;;;;;10.69;72.95;100047.57;257056;1104;116171;-67
2021/09/20 07:48:27;;;;;;;3.45;2.25;;;;;;;10.75;72.58;100046.64;257174;1104;115088;-67
2021/09/20 07:53:30;;;;;;;4.63;3.43;;;;;;;10.79;72.85;100050.47;257240;1104;115296;-67
2021/09/20 07:58:34;;;;;;;4.68;2.55;;;;;;;10.77;72.03;100044.55;257170;1104;115118;-67
2021/09/20 08:03:37;;;;;;;3.53;2.95;;;;;;;10.73;72.02;100046.86;256464;1104;116089;-67
2021/09/20 08:08:41;;;;;;;2.63;2.28;;;;;;;10.79;72.13;100051.29;254925;1104;115229;-67
2021/09/20 08:13:44;;;;;;;4.13;2.60;;;;;;;10.85;72.26;100054.09;254077;1104;115856;-67
2021/09/20 08:18:48;;;;;;;2.85;2.65;;;;;;;10.85;71.81;100038.90;253630;1104;115586;-66
2021/09/20 08:23:52;;;;;;;4.38;3.13;;;;;;;10.86;71.77;100047.71;253871;1104;115985;-66
2021/09/20 08:28:56;;;;;;;3.78;3.13;;;;;;;10.86;71.87;100047.71;254912;1104;117302;-66
2021/09/20 08:33:59;;;;;;;3.63;2.88;;;;;;;10.74;71.29;100045.01;255268;1104;116079;-66
2021/09/20 08:39:03;;;;;;;3.27;2.40;;;;;;;10.64;71.60;100056.25;255299;1104;115651;-66
2021/09/20 08:44:09;;;;;;;3.68;3.38;;;;;;;10.54;71.67;100060.48;253898;1099;115779;-66
2021/09/20 08:49:14;;;;;;;3.23;2.53;;;;;;;10.56;71.74;100055.75;254047;1104;116413;-66
2021/09/20 08:54:18;;;;;;;3.83;2.83;;;;;;;10.56;71.78;100056.56;253890;1104;115930;-68
2021/09/20 08:59:25;;;;;;;4.83;3.25;;;;;;;10.53;71.69;100064.19;254015;1100;115978;-66
2021/09/20 09:04:35;;;;;;;3.33;2.70;;;;;;;10.48;71.81;100072.86;255589;1104;116481;-66
2021/09/20 09:09:50;;;;;;;6.60;2.73;;;;;;;10.42;71.45;100068.42;254151;1098;117309;-66
2021/09/20 09:14:55;;;;;;;5.93;2.70;;;;;;;10.39;72.02;100066.23;255385;1104;115427;-66
2021/09/20 09:20:22;;;;;;;2.93;2.23;;;;;;;10.39;72.04;100064.39;254834;1098;115569;-66
2021/09/20 09:25:35;;;;;;;2.85;2.58;;;;;;;10.43;72.06;100060.20;255838;1104;116074;-66
2021/09/20 09:30:48;;;;;;;4.45;3.30;;;;;;;10.53;72.06;100056.20;253698;1104;114882;-66
2021/09/20 09:35:54;;;;;;;4.80;2.90;;;;;;;10.64;72.34;100071.43;257218;1104;115229;-67
2021/09/20 09:41:00;;;;;;;5.73;3.00;;;;;;;10.72;72.39;100063.09;256070;1104;115819;-67
2021/09/20 09:46:21;;;;;;;6.60;2.48;;;;;;;10.78;72.17;100070.18;256998;1104;116638;-66
2021/09/20 09:51:24;;;;;;;4.35;3.15;;;;;;;10.74;71.87;100069.81;257359;1104;115140;-66
2021/09/20 09:56:28;;;;;;;4.70;3.45;;;;;;;10.72;71.86;100079.89;257190;1104;115594;-67
2021/09/20 10:01:40;;;;;;;3.18;2.85;;;;;;;10.71;72.23;100077.45;257108;1104;115122;-66
2021/09/20 10:06:43;;;;;;;2.48;2.25;;;;;;;10.69;72.24;100076.90;256854;1104;115612;-66
2021/09/20 10:11:49;;;;;;;7.05;2.98;;;;;;;10.71;72.33;100078.27;254589;1104;115632;-68
2021/09/20 10:16:59;;;;;;;6.33;3.30;;;;;;;10.75;72.67;100076.78;255730;1104;116320;-68
2021/09/20 10:22:02;;;;;;;;;;;;;;;10.79;72.53;100074.47;254657;1104;114978;-66
2021/09/20 10:27:07;;;;;;;4.28;3.00;;;;;;;10.79;72.37;100066.48;256313;1104;103109;-67
2021/09/20 10:32:12;;;;;;;6.98;4.30;;;;;;;10.84;72.53;100074.61;255724;1104;115120;-66
2021/09/20 10:37:23;;;;;;;4.07;3.67;;;;;;;10.90;72.66;100071.03;254061;1104;115556;-66
2021/09/20 10:42:36;;;;;;;6.18;3.98;;;;;;;10.97;72.45;100079.75;254325;1104;115676;-66
2021/09/20 10:47:46;;;;;;;7.88;4.68;;;;;;;10.95;72.44;100076.50;253895;1104;116265;-69
2021/09/20 10:53:22;;;;;;;4.20;3.80;;;;;;;11.22;72.20;100078.75;253838;1100;115894;-66
2021/09/20 10:58:26;;;;;;;11.33;5.30;;;;;;;11.33;72.34;100069.92;254254;1099;116385;-66
2021/09/20 11:03:49;;;;;;;5.50;3.70;;;;;;;11.27;72.03;100077.02;254421;1104;115720;-67
2021/09/20 11:09:01;;;;;;;8.28;4.60;;;;;;;11.15;72.33;100068.17;254801;1100;115510;-66
2021/09/20 11:14:13;;;;;;;5.35;4.55;;;;;;;11.06;72.15;100069.55;254303;1104;115812;-66
2021/09/20 11:19:40;;;;;;;5.38;4.73;;;;;;;11.07;72.42;100063.98;255367;1104;115457;-66
2021/09/20 11:24:47;;;;;;;5.70;4.57;;;;;;;11.06;72.51;100064.21;255873;1104;115851;-66
2021/09/20 11:30:18;;;;;;;7.03;5.28;;;;;;;11.03;72.78;100064.66;254411;1104;115372;-66
2021/09/20 11:35:20;;;;;;;8.50;5.63;;;;;;;10.97;72.58;100070.94;253559;1104;115387;-66
2021/09/20 11:40:27;;;;;;;8.83;5.45;;;;;;;10.95;72.21;100073.02;255392;1104;115381;-66
2021/09/20 11:45:37;;;;;;;6.68;5.80;;;;;;;10.98;72.96;100069.90;257245;1104;115662;-67
2021/09/20 11:50:43;;;;;;;7.70;7.00;;;;;;;11.04;73.18;100071.63;255907;1104;115611;-66
2021/09/20 11:55:50;;;;;;;6.88;6.18;;;;;;;11.17;73.15;100078.62;257032;1104;115995;-67
2021/09/20 12:00:54;;;;;;;10.20;5.90;;;;;;;11.28;73.08;100075.16;256572;1104;115560;-67
2021/09/20 12:06:00;;;;;;;7.58;5.78;;;;;;;11.45;73.60;100073.42;256605;1099;118026;-66
2021/09/20 12:11:04;;;;;;;;;;;;;;;11.61;73.38;100069.25;256198;1098;117436;-66
2021/09/20 12:16:09;;;;;;;8.38;6.53;;;;;;;11.63;73.17;100075.14;254835;1104;103100;-66
2021/09/20 12:21:14;;;;;;;11.50;6.40;;;;;;;11.63;73.38;100078.63;254400;1104;115320;-66
2021/09/20 12:26:24;;;;;;;6.70;5.00;;;;;;;11.50;72.69;100073.54;253882;1104;116614;-66
2021/09/20 12:31:36;;;;;;;5.63;5.13;;;;;;;11.43;73.04;100091.52;255029;1104;118545;-65
2021/09/20 12:36:44;;;;;;;6.25;5.53;;;;;;;11.37;72.95;100095.11;255523;1104;115762;-66
2021/09/20 12:41:56;;;;;;;4.40;3.80;;;;;;;11.38;72.35;100094.88;256308;1104;116240;-66
2021/09/20 12:47:08;;;;;;;6.23;3.78;;;;;;;11.44;72.30;100101.97;254539;1104;116188;-66
2021/09/20 12:52:33;;;;;;;4.53;4.05;;;;;;;11.54;72.52;100114.75;255043;1100;116181;-66
2021/09/20 12:57:52;;;;;;;3.70;3.40;;;;;;;11.57;72.11;100106.28;254368;1104;116235;-67
2021/09/20 13:03:13;;;;;;;3.50;3.00;;;;;;;11.49;71.82;100117.30;255633;1104;115639;-67
2021/09/20 13:08:17;;;;;;;4.20;3.70;;;;;;;11.42;71.66;100121.92;254499;1104;115706;-67
2021/09/20 13:13:38;;;;;;;6.83;3.53;;;;;;;11.32;71.33;100117.14;254557;1104;115703;-68
2021/09/20 13:18:42;;;;;;;5.30;3.30;;;;;;;11.24;71.26;100122.84;255241;1104;115891;-70
2021/09/20 13:23:46;;;;;;;3.73;2.70;;;;;;;11.12;71.52;100128.14;255847;1104;118124;-67
2021/09/20 13:28:49;;;;;;;4.55;3.50;;;;;;;11.04;71.49;100130.31;254755;1104;115996;-64
2021/09/20 13:33:52;;;;;;;3.05;2.83;;;;;;;11.05;71.40;100129.27;256243;1104;119334;-66
2021/09/20 13:38:56;;;;;;;3.20;2.90;;;;;;;11.08;71.41;100136.83;256444;1104;115754;-68
2021/09/20 13:43:59;;;;;;;2.98;2.68;;;;;;;11.03;71.33;100145.51;257015;1104;115989;-65
2021/09/20 13:49:03;;;;;;;5.08;2.63;;;;;;;11.07;71.77;100145.87;254544;1104;116199;-66
2021/09/20 13:54:07;;;;;;;3.38;2.85;;;;;;;11.07;71.11;100151.20;257251;1104;115953;-67
2021/09/20 13:59:09;;;;;;;5.13;2.85;;;;;;;11.08;71.35;100156.31;257207;1104;116107;-66
2021/09/20 14:04:12;;;;;;;6.65;3.85;;;;;;;11.14;71.65;100174.09;257039;1104;115694;-67
2021/09/20 14:09:16;;;;;;;3.25;2.95;;;;;;;11.16;71.42;100170.38;257124;1104;115751;-66
2021/09/20 14:14:18;;;;;;;3.68;2.93;;;;;;;11.23;71.59;100166.58;257038;1104;116223;-66
2021/09/20 14:19:22;;;;;;;5.63;3.40;;;;;;;11.29;71.55;100164.86;255872;1104;116796;-66
2021/09/20 14:24:26;;;;;;;2.73;2.53;;;;;;;11.33;71.37;100171.34;255768;1104;116958;-65
2021/09/20 14:29:29;;;;;;;3.30;3.05;;;;;;;11.35;71.49;100183.41;255017;1104;114808;-66
2021/09/20 14:34:32;;;;;;;2.85;2.18;;;;;;;11.37;71.27;100181.34;255904;1104;115126;-66
2021/09/20 14:39:36;;;;;;;2.70;2.50;;;;;;;11.28;71.04;100184.58;255814;1099;115376;-66
2021/09/20 14:44:42;;;;;;;2.13;1.83;;;;;;;11.29;71.29;100197.70;255104;1097;114920;-70
2021/09/20 14:49:50;;;;;;;2.40;2.20;;;;;;;11.28;71.01;100203.27;253623;1100;114796;-68
2021/09/20 14:54:54;;;;;;;1.93;1.83;;;;;;;11.26;70.81;100208.83;255076;1104;115543;-70
2021/09/20 14:59:59;;;;;;;1.70;1.50;;;;;;;11.19;70.18;100210.77;253563;1104;115639;-70
2021/09/20 15:05:05;;;;;;;1.75;1.65;;;;;;;11.12;70.40;100213.52;255061;1100;115919;-71
2021/09/20 15:10:12;;;;;;;1.33;1.23;;;;;;;11.05;70.41;100212.80;254150;1099;115403;-71
2021/09/20 15:15:17;;;;;;;1.68;1.10;;;;;;;11.02;70.54;100213.23;256003;1104;115416;-69
2021/09/20 15:20:21;;;;;;;3.18;2.48;;;;;;;10.98;70.29;100220.09;255898;1104;114995;-70
2021/09/20 15:25:25;;;;;;;1.85;1.40;;;;;;;11.00;70.42;100219.87;254734;1104;114725;-70
2021/09/20 15:30:28;;;;;;;1.20;1.10;;;;;;;10.99;70.44;100235.06;253546;1104;115678;-70
2021/09/20 15:35:35;;;;;;;1.98;1.78;;;;;;;10.98;70.35;100233.43;254030;1104;116746;-70
2021/09/20 15:40:39;;;;;;;1.80;1.70;;;;;;;10.97;70.42;100241.66;253640;1104;116636;-72
2021/09/20 15:45:43;;;;;;;1.73;1.28;;;;;;;10.95;70.08;100238.40;253465;1104;115216;-69
2021/09/20 15:50:48;;;;;;;1.33;1.20;;;;;;;10.94;70.89;100248.25;257023;1104;115648;-70
2021/09/20 15:55:51;;;;;;;3.18;1.23;;;;;;;10.93;69.74;100257.30;256992;1104;115360;-69
2021/09/20 16:00:54;;;;;;;2.18;1.60;;;;;;;10.94;69.97;100264.25;256148;1104;115192;-70
2021/09/20 16:05:57;;;;;;;2.25;1.30;;;;;;;10.89;70.41;100261.44;257082;1104;115162;-68
2021/09/20 16:11:01;;;;;;;2.48;1.53;;;;;;;10.82;70.23;100266.03;254423;1104;115863;-67
2021/09/20 16:16:05;;;;;;;5.88;2.13;;;;;;;10.75;70.16;100273.28;255913;1104;117507;-68
2021/09/20 16:21:09;;;;;;;2.13;1.93;;;;;;;10.65;70.70;100273.83;256304;1104;115433;-68
2021/09/20 16:26:12;;;;;;;2.88;2.18;;;;;;;10.50;70.41;100286.69;254778;1104;116159;-69
2021/09/20 16:31:15;;;;;;;2.90;2.18;;;;;;;10.32;70.71;100290.16;254286;1100;115895;-69
2021/09/20 16:36:22;;;;;;;3.13;2.80;;;;;;;10.12;71.02;100289.47;253922;1104;116105;-69
2021/09/20 16:41:27;;;;;;;2.30;1.63;;;;;;;9.92;70.69;100294.15;254949;1104;116694;-69
2021/09/20 16:46:31;;;;;;;2.27;1.77;;;;;;;9.69;70.76;100300.05;254042;1104;115647;-68
2021/09/20 16:51:34;;;;;;;2.90;1.83;;;;;;;9.48;71.10;100308.38;254034;1099;115774;-68
2021/09/20 16:56:40;;;;;;;2.50;1.50;;;;;;;9.36;72.21;100310.89;254052;1099;116178;-67
2021/09/20 17:01:44;;;;;;;2.03;1.60;;;;;;;9.24;71.93;100323.22;254496;1098;115661;-69
2021/09/20 17:06:48;;;;;;;2.93;2.10;;;;;;;9.15;72.29;100324.51;253955;1104;115284;-68
2021/09/20 17:11:53;;;;;;;2.53;1.85;;;;;;;8.95;71.94;100321.90;254551;1104;115795;-68
2021/09/20 17:16:56;;;;;;;3.23;2.23;;;;;;;8.66;71.79;100326.68;255151;1100;116522;-69
2021/09/20 17:21:59;;;;;;;1.88;1.78;;;;;;;8.49;72.48;100337.97;253542;1104;115110;-67
2021/09/20 17:27:02;;;;;;;2.75;2.08;;;;;;;8.34;72.36;100338.17;254445;1099;115527;-67
2021/09/20 17:32:05;;;;;;;6.43;3.15;;;;;;;8.22;73.24;100345.11;256245;1104;115112;-68
2021/09/20 17:37:09;;;;;;;1.98;1.85;;;;;;;8.06;73.03;100341.00;254898;1104;115384;-68
2021/09/20 17:42:13;;;;;;;2.93;2.10;;;;;;;7.88;73.44;100343.45;253933;1104;115231;-67
2021/09/20 17:47:16;;;;;;;3.33;2.13;;;;;;;7.67;73.34;100350.53;253808;1099;114942;-67
2021/09/20 17:52:24;;;;;;;3.05;1.93;;;;;;;7.58;72.81;100350.94;257139;1104;115327;-68
2021/09/20 17:57:27;;;;;;;2.80;2.58;;;;;;;7.51;73.43;100358.88;257249;1104;115512;-69
2021/09/20 18:02:31;;;;;;;2.68;2.30;;;;;;;7.39;73.49;100358.62;257123;1104;115521;-68
2021/09/20 18:07:35;;;;;;;2.80;1.95;;;;;;;7.22;72.86;100352.03;254695;1104;115633;-69
2021/09/20 18:12:41;;;;;;;2.45;1.90;;;;;;;6.99;72.84;100357.65;256093;1104;115082;-71
2021/09/20 18:17:44;;;;;;;2.63;1.78;;;;;;;6.88;73.30;100365.31;255161;1104;115544;-71
2021/09/20 18:22:49;;;;;;;2.55;2.20;;;;;;;6.86;74.48;100376.11;255616;1100;115238;-69
2021/09/20 18:27:53;;;;;;;4.30;2.33;;;;;;;6.77;74.36;100379.92;254355;1104;115125;-67
2021/09/20 18:33:01;;;;;;;3.45;2.63;;;;;;;6.68;74.11;100383.75;253375;1104;114859;-68
2021/09/20 18:38:04;;;;;;;3.50;2.53;;;;;;;6.56;73.88;100382.64;255390;1104;115261;-67
2021/09/20 18:43:08;;;;;;;3.23;2.20;;;;;;;6.39;74.52;100390.06;254696;1104;114967;-68
2021/09/20 18:48:11;;;;;;;7.18;3.68;;;;;;;6.37;75.04;100398.20;254478;1104;115232;-68
2021/09/20 18:53:14;;;;;;;2.93;2.35;;;;;;;6.24;74.46;100400.72;254720;1100;115592;-68
2021/09/20 18:58:18;;;;;;;2.20;2.00;;;;;;;6.09;74.36;100410.56;255505;1099;115184;-69
2021/09/20 19:03:22;;;;;;;4.48;2.65;;;;;;;6.00;75.10;100411.69;254025;1104;116578;-68
2021/09/20 19:08:28;;;;;;;4.48;2.65;;;;;;;5.90;75.42;100414.64;255977;1104;115017;-69
2021/09/20 19:13:32;;;;;;;4.55;3.05;;;;;;;5.83;74.90;100421.64;253729;1104;116622;-67
2021/09/20 19:18:51;;;;;;;8.15;5.23;;;;;;;5.78;75.44;100420.59;255804;1104;114911;-70
2021/09/20 19:23:55;;;;;;;6.08;4.23;;;;;;;5.79;75.45;100422.23;255031;1100;115098;-70
2021/09/20 19:28:59;;;;;;;6.10;4.00;;;;;;;5.71;75.33;100428.45;253327;1104;115963;-68
2021/09/20 19:34:03;;;;;;;5.98;4.05;;;;;;;5.67;75.95;100430.64;255138;1104;116021;-67
2021/09/20 19:39:07;;;;;;;6.90;3.93;;;;;;;5.63;75.44;100426.72;254127;1104;115867;-67
2021/09/20 19:44:11;;;;;;;4.38;3.35;;;;;;;5.50;76.20;100431.88;254273;1104;116093;-66
2021/09/20 19:49:16;;;;;;;7.03;5.18;;;;;;;5.38;75.54;100439.44;255600;1100;115632;-67
2021/09/20 19:54:19;;;;;;;4.03;2.78;;;;;;;5.34;75.64;100439.98;255796;1104;115497;-68
2021/09/20 19:59:23;;;;;;;3.63;3.30;;;;;;;5.37;76.40;100448.38;257319;1104;115589;-68
2021/09/20 20:04:26;;;;;;;6.03;3.10;;;;;;;5.39;76.43;100449.02;257007;1104;118013;-69
2021/09/20 20:09:29;;;;;;;4.15;3.48;;;;;;;5.46;76.72;100446.46;257201;1104;115599;-68
2021/09/20 20:14:33;;;;;;;6.80;4.03;;;;;;;5.55;76.80;100452.45;257097;1104;116566;-69
2021/09/20 20:19:40;;;;;;;4.95;3.95;;;;;;;5.63;76.73;100450.52;257069;1104;119101;-68
2021/09/20 20:24:45;;;;;;;5.33;3.80;;;;;;;5.71;76.69;100447.78;254386;1104;116368;-65
2021/09/20 20:29:49;;;;;;;9.48;4.48;;;;;;;5.75;77.37;100454.34;253638;1104;115519;-65
2021/09/20 20:34:52;;;;;;;7.63;5.03;;;;;;;5.81;77.92;100457.26;256267;1104;115680;-67
2021/09/20 20:39:56;;;;;;;9.13;4.90;;;;;;;5.82;77.46;100461.52;254582;1104;116707;-66
2021/09/20 20:45:00;;;;;;;8.50;5.38;;;;;;;5.79;76.98;100469.85;253954;1104;116189;-66
2021/09/20 20:50:04;;;;;;;7.88;4.33;;;;;;;5.73;77.21;100461.64;254774;1104;116652;-67
2021/09/20 20:55:09;;;;;;;7.08;4.78;;;;;;;5.72;77.24;100465.30;254308;1104;114947;-66
2021/09/20 21:00:13;;;;;;;11.10;8.68;;;;;;;5.73;78.01;100466.11;253352;1104;115406;-67
2021/09/20 21:05:17;;;;;;;7.80;6.63;;;;;;;5.70;77.25;100472.59;253692;1104;115459;-67
2021/09/20 21:10:24;;;;;;;12.53;7.15;;;;;;;5.60;76.91;100479.98;254072;1104;115739;-67
2021/09/20 21:15:28;;;;;;;25.15;19.70;;;;;;;5.53;77.32;100488.83;254533;1104;115781;-68
2021/09/20 21:20:32;;;;;;;31.80;23.13;;;;;;;5.41;77.29;100488.48;253987;1104;115939;-65
2021/09/20 21:25:35;;;;;;;34.65;24.83;;;;;;;5.30;77.38;100489.75;256314;1104;117190;-68
2021/09/20 21:30:47;;;;;;;32.80;24.23;;;;;;;5.19;77.22;100492.87;255429;1104;116059;-68
2021/09/20 21:35:54;;;;;;;27.00;17.58;;;;;;;5.05;77.60;100494.48;253910;1104;117435;-66
2021/09/20 21:40:58;;;;;;;16.68;11.78;;;;;;;4.94;76.88;100500.19;255812;1104;115863;-67
2021/09/20 21:46:00;;;;;;;15.80;11.50;;;;;;;4.88;77.38;100490.36;255065;1104;115777;-66
2021/09/20 21:51:04;;;;;;;15.88;12.93;;;;;;;4.85;77.41;100498.64;254268;1104;115798;-65
2021/09/20 21:56:07;;;;;;;21.15;11.58;;;;;;;4.82;77.34;100506.92;257214;1104;114944;-66
2021/09/20 22:01:10;;;;;;;15.10;12.93;;;;;;;4.82;77.47;100506.10;257228;1104;115810;-66
2021/09/20 22:06:14;;;;;;;14.70;11.33;;;;;;;4.80;77.30;100516.84;257334;1104;116403;-66
2021/09/20 22:11:17;;;;;;;19.28;12.63;;;;;;;4.75;77.16;100519.20;257237;1104;117346;-68
2021/09/20 22:16:20;;;;;;;13.45;10.15;;;;;;;4.66;77.38;100512.33;254019;1104;118282;-66
2021/09/20 22:21:23;;;;;;;14.23;10.40;;;;;;;4.60;77.50;100515.67;256349;1104;115438;-65
2021/09/20 22:26:27;;;;;;;15.90;11.00;;;;;;;4.60;77.82;100515.67;253943;1100;116124;-66
2021/09/20 22:31:30;;;;;;;19.83;10.60;;;;;;;4.61;77.67;100525.23;254405;1104;115163;-66
2021/09/20 22:36:33;;;;;;;17.73;10.85;;;;;;;4.59;78.04;100524.59;253769;1104;115611;-67
2021/09/20 22:41:36;;;;;;;15.88;9.53;;;;;;;4.50;77.83;100521.21;253773;1104;116498;-66
2021/09/20 22:46:39;;;;;;;16.20;12.45;;;;;;;4.38;77.56;100526.06;254848;1104;116239;-69
2021/09/20 22:51:42;;;;;;;15.28;9.35;;;;;;;4.33;77.63;100530.22;255654;1104;116636;-66
2021/09/20 22:56:44;;;;;;;14.30;8.00;;;;;;;4.34;78.43;100527.41;254048;1104;115073;-65
2021/09/20 23:01:47;;;;;;;10.63;7.60;;;;;;;4.40;78.42;100534.63;253949;1104;115329;-66
2021/09/20 23:06:50;;;;;;;11.43;7.55;;;;;;;4.40;78.34;100536.45;254167;1104;115340;-67
2021/09/20 23:11:53;;;;;;;15.18;11.05;;;;;;;4.43;78.73;100535.28;254674;1104;114932;-68
2021/09/20 23:16:57;;;;;;;11.70;8.00;;;;;;;4.46;78.34;100542.85;254948;1098;115592;-69